Time;durP1;ratioP1;P1;durP2;ratioP2;P2;SDS_P1;SDS_P2;PMS_P1;PMS_P2;Temp;Humidity;BMP_temperature;BMP_pressure;BME280_temperature;BME280_humidity;BME280_pressure;Samples;Min_cycle;Max_cycle;Signal;HPM_P1;HPM_P2
2023/07/09 07:12:19;;;;;;;;;;;;;;;23.82;39.50;99169.22;6333874;22;19923;-87
2023/07/09 07:15:11;;;;;;;;;;;;;;;23.83;38.77;99179.19;6310964;22;19918;-92
2023/07/09 07:18:03;;;;;;;;;;;;;;;23.62;36.87;99166.88;6287279;22;20294;-91
2023/07/09 07:20:30;;;;;;;;;;;;;;;23.52;37.20;99164.13;6254162;22;19934;-90
2023/07/09 07:23:10;;;;;;;;;;;;;;;23.53;37.81;99171.31;6307317;22;19925;-93
2023/07/09 07:26:10;;;;;;;;;;;;;;;23.50;37.89;99158.94;6257006;22;19927;-90
2023/07/09 07:28:36;;;;;;;;;;;;;;;23.51;38.94;99162.53;6307177;22;19925;-91
2023/07/09 07:31:14;;;;;;;;;;;;;;;23.45;39.52;99167.75;6255424;22;19940;-90
2023/07/09 07:33:52;;;;;;;;;;;;;;;23.40;39.76;99166.16;6257542;22;20001;-90
2023/07/09 07:36:17;;;;;;;;;;;;;;;23.35;39.12;99163.00;6249130;22;19950;-91
2023/07/09 07:39:11;;;;;;;;;;;;;;;23.35;39.71;99165.78;6226590;22;19969;-94
2023/07/09 07:44:59;;;;;;;;;;;;;;;23.39;38.11;99164.56;6254097;22;20010;-91
2023/07/09 07:47:27;;;;;;;;;;;;;;;23.38;38.05;99157.41;6276172;22;19919;-91
2023/07/09 07:53:53;;;;;;;;;;;;;;;23.44;36.70;99157.78;6279977;22;19926;-93
2023/07/09 08:02:19;;;;;;;;;;;;;;;23.88;36.11;99159.22;6190526;23;20037;-86
2023/07/09 08:04:45;;;;;;;;;;;;;;;23.85;37.55;99144.09;6188893;23;19938;-88
2023/07/09 08:07:35;;;;;;;;;;;;;;;23.94;36.81;99143.66;6192496;23;19923;-89
2023/07/09 08:10:02;;;;;;;;;;;;;;;24.07;36.15;99136.38;6207869;23;19950;-88
2023/07/09 08:12:38;;;;;;;;;;;;;;;24.16;37.24;99147.09;6222969;23;19935;-86
2023/07/09 08:15:06;;;;;;;;;;;;;;;24.30;38.61;99140.59;6216786;23;19971;-82
2023/07/09 08:17:32;;;;;;;;;;;;;;;24.37;37.88;99140.56;6239268;23;19955;-84
2023/07/09 08:19:58;;;;;;;;;;;;;;;24.30;37.87;99135.03;6239572;23;19928;-85
2023/07/09 08:22:24;;;;;;;;;;;;;;;24.21;38.31;99137.50;6240069;23;19919;-83
2023/07/09 08:24:57;;;;;;;;;;;;;;;24.00;38.31;99133.63;6191819;23;20301;-86
2023/07/09 08:27:22;;;;;;;;;;;;;;;23.81;37.58;99137.72;6239717;23;20217;-84
2023/07/09 08:29:51;;;;;;;;;;;;;;;23.86;37.48;99128.91;6240853;23;19919;-86
2023/07/09 08:32:38;;;;;;;;;;;;;;;24.03;37.75;99132.00;6186200;23;19919;-87
2023/07/09 08:35:05;;;;;;;;;;;;;;;24.16;36.19;99135.91;6210856;23;20002;-87
2023/07/09 08:37:31;;;;;;;;;;;;;;;24.36;36.92;99125.00;6184078;23;20399;-84
2023/07/09 08:39:57;;;;;;;;;;;;;;;24.56;38.22;99123.25;6209540;23;19923;-87
2023/07/09 08:42:39;;;;;;;;;;;;;;;24.59;36.36;99116.06;6188352;23;20009;-85
2023/07/09 08:45:29;;;;;;;;;;;;;;;24.46;36.57;99115.75;6187039;23;20031;-86
2023/07/09 08:47:58;;;;;;;;;;;;;;;24.45;35.59;99107.81;6161453;23;19999;-87
2023/07/09 08:50:37;;;;;;;;;;;;;;;24.24;35.15;99117.09;6162748;23;19923;-85
2023/07/09 08:53:04;;;;;;;;;;;;;;;24.21;36.33;99109.56;6210347;23;19999;-85
2023/07/09 08:55:40;;;;;;;;;;;;;;;24.44;38.54;99115.41;6208544;23;20309;-86
2023/07/09 08:58:17;;;;;;;;;;;;;;;24.54;37.80;99102.53;6209400;23;19919;-84
2023/07/09 09:01:01;;;;;;;;;;;;;;;24.34;35.95;99111.44;6185619;23;20340;-87
2023/07/09 09:03:31;;;;;;;;;;;;;;;24.29;35.63;99097.91;6181245;23;19972;-85
2023/07/09 09:05:57;;;;;;;;;;;;;;;24.31;35.88;99103.09;6210876;23;19919;-85
2023/07/09 09:08:42;;;;;;;;;;;;;;;24.52;34.45;99096.56;6208686;23;19924;-86
2023/07/09 09:11:10;;;;;;;;;;;;;;;24.87;36.01;99086.25;6277374;22;20271;-86
2023/07/09 09:13:40;;;;;;;;;;;;;;;25.22;37.27;99082.28;6253170;22;20650;-85
2023/07/09 09:16:15;;;;;;;;;;;;;;;25.43;36.00;99076.44;6277550;22;19926;-85
2023/07/09 09:18:42;;;;;;;;;;;;;;;25.27;36.63;99074.25;6303626;22;19998;-87
2023/07/09 09:21:32;;;;;;;;;;;;;;;24.96;36.16;99072.56;6281258;22;20299;-88
2023/07/09 09:24:19;;;;;;;;;;;;;;;24.84;36.89;99068.31;6253417;22;20092;-83
2023/07/09 09:26:47;;;;;;;;;;;;;;;24.80;34.99;99070.31;6156120;23;19924;-86
2023/07/09 09:29:16;;;;;;;;;;;;;;;24.58;34.53;99064.97;6181461;23;19951;-86
2023/07/09 09:31:45;;;;;;;;;;;;;;;24.69;35.86;99066.88;6108341;23;19920;-86
2023/07/09 09:34:18;;;;;;;;;;;;;;;24.86;35.59;99046.31;6162577;23;19991;-86
2023/07/09 09:36:43;;;;;;;;;;;;;;;24.83;33.61;99063.91;6156514;23;20372;-85
2023/07/09 09:39:10;;;;;;;;;;;;;;;24.85;33.45;99053.91;6153828;23;19920;-86
2023/07/09 09:41:37;;;;;;;;;;;;;;;24.95;34.66;99059.81;6155172;23;19920;-85
2023/07/09 09:44:04;;;;;;;;;;;;;;;25.01;33.75;99049.75;6130477;23;20255;-85
2023/07/09 09:46:31;;;;;;;;;;;;;;;25.20;35.24;99046.34;6178943;23;19920;-86
2023/07/09 09:49:01;;;;;;;;;;;;;;;25.30;34.40;99051.03;6178946;23;19920;-84
2023/07/09 09:51:27;;;;;;;;;;;;;;;25.24;32.20;99047.09;6180050;23;20366;-85
2023/07/09 09:54:00;;;;;;;;;;;;;;;25.33;34.26;99037.38;6180167;23;19940;-85
2023/07/09 09:56:44;;;;;;;;;;;;;;;25.43;34.49;99040.06;6132182;23;19920;-85
2023/07/09 09:59:19;;;;;;;;;;;;;;;25.42;33.56;99041.25;6192000;23;19919;-86
2023/07/09 10:01:45;;;;;;;;;;;;;;;25.47;34.49;99038.00;6162206;23;19920;-86
2023/07/09 10:04:15;;;;;;;;;;;;;;;25.72;35.16;99034.06;6238859;22;19921;-85
2023/07/09 10:06:42;;;;;;;;;;;;;;;25.94;33.48;99040.16;6338732;22;19918;-85
2023/07/09 10:09:19;;;;;;;;;;;;;;;25.83;34.52;99034.72;6310638;22;19967;-82
2023/07/09 10:11:45;;;;;;;;;;;;;;;25.94;33.72;99026.16;6336325;22;19919;-81
2023/07/09 10:14:24;;;;;;;;;;;;;;;25.98;32.25;99018.50;6336537;22;19918;-90
2023/07/09 10:16:56;;;;;;;;;;;;;;;25.98;30.76;99036.09;6311383;22;19956;-84
2023/07/09 10:19:30;;;;;;;;;;;;;;;26.07;31.75;99026.38;6337312;22;20302;-86
2023/07/09 10:21:57;;;;;;;;;;;;;;;26.10;31.37;99020.69;6308582;22;19919;-81
2023/07/09 10:24:41;;;;;;;;;;;;;;;26.30;31.75;99023.56;6334718;22;19919;-83
2023/07/09 10:27:20;;;;;;;;;;;;;;;26.39;32.24;99009.81;6308049;22;20348;-84
2023/07/09 10:29:49;;;;;;;;;;;;;;;26.36;31.99;99013.47;6335805;22;19918;-84
2023/07/09 10:32:36;;;;;;;;;;;;;;;26.31;32.18;99011.13;6257965;22;19944;-87
2023/07/09 10:35:10;;;;;;;;;;;;;;;26.36;32.41;99012.66;6337867;22;19940;-84
2023/07/09 10:37:55;;;;;;;;;;;;;;;26.36;31.38;99009.88;6336676;22;19971;-82
2023/07/09 10:40:41;;;;;;;;;;;;;;;26.51;32.35;99007.63;6308579;22;19918;-82
2023/07/09 10:43:09;;;;;;;;;;;;;;;26.47;31.72;99011.28;6308948;22;19953;-82
2023/07/09 10:45:41;;;;;;;;;;;;;;;26.36;31.20;98999.44;6310262;22;19971;-85
2023/07/09 10:48:19;;;;;;;;;;;;;;;26.45;31.33;99002.47;6284528;22;20048;-84
2023/07/09 10:50:57;;;;;;;;;;;;;;;26.43;32.37;98990.13;6338198;22;19919;-84
2023/07/09 10:53:23;;;;;;;;;;;;;;;26.51;31.69;98996.41;6310465;22;19918;-85
2023/07/09 10:56:05;;;;;;;;;;;;;;;26.66;32.32;98990.09;6336738;22;20347;-86
2023/07/09 10:58:42;;;;;;;;;;;;;;;26.69;32.25;98991.25;6334082;22;19925;-84
2023/07/09 11:01:11;;;;;;;;;;;;;;;26.58;30.18;99005.47;6305070;22;20010;-82
2023/07/09 11:03:43;;;;;;;;;;;;;;;26.53;32.15;98979.94;6298444;22;20483;-82
2023/07/09 11:06:14;;;;;;;;;;;;;;;26.76;32.17;98993.13;6276515;22;19923;-85
2023/07/09 11:08:41;;;;;;;;;;;;;;;26.90;30.99;98993.63;6279725;22;19963;-85
2023/07/09 11:11:10;;;;;;;;;;;;;;;27.00;30.56;98986.22;6305641;22;19918;-85
2023/07/09 11:13:40;;;;;;;;;;;;;;;26.99;31.65;98986.63;6305318;22;19919;-85
2023/07/09 11:16:06;;;;;;;;;;;;;;;26.90;30.58;98990.81;6305754;22;19993;-85
2023/07/09 11:18:33;;;;;;;;;;;;;;;26.91;30.17;98989.59;6279834;22;19957;-83
2023/07/09 11:21:15;;;;;;;;;;;;;;;27.05;31.00;98990.53;6278924;22;19992;-85
2023/07/09 11:23:53;;;;;;;;;;;;;;;27.15;30.73;98986.72;6251186;22;19918;-83
2023/07/09 11:26:25;;;;;;;;;;;;;;;27.18;32.05;98977.44;6276565;22;20446;-86
2023/07/09 11:28:54;;;;;;;;;;;;;;;27.24;31.33;98970.09;6308743;22;19919;-88
2023/07/09 11:31:22;;;;;;;;;;;;;;;27.38;32.07;98975.41;6308211;22;19919;-85
2023/07/09 11:34:13;;;;;;;;;;;;;;;27.39;32.82;98967.78;6255195;22;19942;-90
2023/07/09 11:36:54;;;;;;;;;;;;;;;27.03;30.18;98981.75;6258717;22;19918;-88
2023/07/09 11:39:34;;;;;;;;;;;;;;;26.90;31.08;98973.22;6281115;22;20253;-88
2023/07/09 11:42:29;;;;;;;;;;;;;;;26.79;31.99;98973.44;6232167;22;20001;-87
2023/07/09 11:45:07;;;;;;;;;;;;;;;26.52;32.65;98975.53;6279905;22;20010;-88
2023/07/09 11:48:03;;;;;;;;;;;;;;;26.40;33.11;98983.34;6226269;22;19946;-88
2023/07/09 11:50:31;;;;;;;;;;;;;;;26.28;33.32;98977.56;6233215;22;19925;-86
2023/07/09 11:52:59;;;;;;;;;;;;;;;26.10;33.46;98975.88;6232420;22;19926;-89
2023/07/09 11:55:28;;;;;;;;;;;;;;;25.92;34.26;98975.38;6305538;22;19941;-85
2023/07/09 11:57:59;;;;;;;;;;;;;;;25.93;35.06;98971.38;6303838;22;19922;-85
2023/07/09 12:00:51;;;;;;;;;;;;;;;26.10;34.34;98972.28;6280643;22;19919;-88
2023/07/09 12:03:22;;;;;;;;;;;;;;;26.18;34.30;98974.53;6243486;22;20233;-87
2023/07/09 12:05:50;;;;;;;;;;;;;;;26.33;34.90;98966.66;6244657;22;19921;-86
2023/07/09 12:08:16;;;;;;;;;;;;;;;26.34;34.72;98971.03;6221609;22;19942;-84
2023/07/09 12:10:43;;;;;;;;;;;;;;;26.44;33.55;98969.25;6243783;22;19920;-85
2023/07/09 12:13:11;;;;;;;;;;;;;;;26.38;34.81;98960.56;6221104;22;19919;-89
2023/07/09 12:15:39;;;;;;;;;;;;;;;26.18;33.64;98968.91;6221859;22;19955;-85
2023/07/09 12:18:12;;;;;;;;;;;;;;;25.98;34.01;98963.25;6271638;22;19926;-85
2023/07/09 12:20:44;;;;;;;;;;;;;;;25.98;34.47;98962.47;6244866;22;19915;-85
2023/07/09 12:23:23;;;;;;;;;;;;;;;25.95;33.47;98964.09;6270028;22;19919;-84
2023/07/09 12:25:50;;;;;;;;;;;;;;;26.08;33.43;98967.09;6270874;22;20457;-87
2023/07/09 12:28:21;;;;;;;;;;;;;;;26.22;33.63;98964.06;6219719;22;19919;-84
2023/07/09 12:30:51;;;;;;;;;;;;;;;26.24;33.42;98958.03;6244203;22;19919;-87
2023/07/09 12:33:18;;;;;;;;;;;;;;;26.35;33.62;98969.03;6248157;22;19919;-88
2023/07/09 12:35:55;;;;;;;;;;;;;;;26.37;32.57;98949.78;6277980;22;19923;-90
2023/07/09 12:38:45;;;;;;;;;;;;;;;26.21;32.74;98956.06;6248145;22;19919;-91
2023/07/09 12:41:34;;;;;;;;;;;;;;;26.16;33.58;98950.97;6277627;22;20409;-87
2023/07/09 12:44:03;;;;;;;;;;;;;;;25.93;33.47;98952.56;6132312;23;19920;-87
2023/07/09 12:46:53;;;;;;;;;;;;;;;25.94;34.60;98948.53;6161544;23;20285;-89
2023/07/09 12:49:30;;;;;;;;;;;;;;;25.96;34.92;98954.50;6214606;23;19947;-87
2023/07/09 12:52:19;;;;;;;;;;;;;;;26.10;34.57;98955.47;6193461;23;19927;-92
2023/07/09 12:54:56;;;;;;;;;;;;;;;26.08;34.69;98953.09;6194271;23;19920;-91
2023/07/09 12:57:23;;;;;;;;;;;;;;;26.10;34.68;98945.06;6194968;23;20506;-90
2023/07/09 12:59:49;;;;;;;;;;;;;;;26.21;34.83;98948.44;6189150;23;19920;-88
2023/07/09 13:02:42;;;;;;;;;;;;;;;26.32;34.11;98948.25;6190709;23;20006;-92
2023/07/09 13:05:30;;;;;;;;;;;;;;;26.14;34.09;98956.19;6193869;23;19919;-94
2023/07/09 13:08:47;;;;;;;;;;;;;;;25.96;34.35;98956.50;6173699;23;19943;-92
2023/07/09 13:11:17;;;;;;;;;;;;;;;25.76;35.50;98943.22;6191796;23;20346;-90
2023/07/09 13:20:56;;;;;;;;;;;;;;;25.53;35.29;98943.19;6169525;23;19927;-92
2023/07/09 13:23:32;;;;;;;;;;;;;;;25.53;34.62;98935.56;6169501;23;20416;-92
2023/07/09 13:26:01;;;;;;;;;;;;;;;25.54;35.26;98931.53;6141883;23;19923;-94
2023/07/09 13:28:54;;;;;;;;;;;;;;;25.66;35.28;98934.97;6138709;23;19920;-93
2023/07/09 13:31:24;;;;;;;;;;;;;;;25.58;35.28;98928.69;6212374;23;19936;-89
2023/07/09 13:33:55;;;;;;;;;;;;;;;25.38;35.28;98922.22;6138984;23;19975;-87
2023/07/09 13:36:24;;;;;;;;;;;;;;;25.27;35.80;98916.78;6213968;23;20518;-88
2023/07/09 13:38:50;;;;;;;;;;;;;;;25.22;36.01;98925.63;6186711;23;19920;-84
2023/07/09 13:41:16;;;;;;;;;;;;;;;25.15;35.95;98915.34;6213435;23;20448;-82
2023/07/09 13:43:44;;;;;;;;;;;;;;;25.10;36.58;98918.59;6213562;23;19920;-88
2023/07/09 13:49:27;;;;;;;;;;;;;;;24.99;36.47;98918.72;6172291;23;19920;-92
2023/07/09 13:51:55;;;;;;;;;;;;;;;24.99;37.06;98912.34;6263985;22;19981;-90
2023/07/09 13:54:47;;;;;;;;;;;;;;;24.99;37.20;98918.72;6263287;22;19923;-90
2023/07/09 13:57:15;;;;;;;;;;;;;;;24.90;37.56;98912.88;6257538;22;19967;-95
2023/07/09 13:59:44;;;;;;;;;;;;;;;24.88;37.29;98920.88;6202351;23;19919;-90
2023/07/09 14:09:34;;;;;;;;;;;;;;;;;;;;;
2023/07/09 14:12:31;;;;;;;;;;;;;;;24.83;37.76;98913.75;6341995;22;19958;-93
2023/07/09 14:15:12;;;;;;;;;;;;;;;24.84;37.19;98906.94;6293645;22;19919;-93
2023/07/09 14:18:12;;;;;;;;;;;;;;;24.84;36.27;98915.31;6266256;22;19918;-91
2023/07/09 14:21:14;;;;;;;;;;;;;;;;;;;;;
2023/07/09 14:24:20;;;;;;;;;;;;;;;24.88;36.11;98906.09;6316272;22;19923;-92
2023/07/09 14:26:48;;;;;;;;;;;;;;;25.01;35.96;98907.91;6289736;22;19918;-92
2023/07/09 14:29:15;;;;;;;;;;;;;;;25.28;35.58;98898.78;6315454;22;20345;-93
2023/07/09 14:31:44;;;;;;;;;;;;;;;25.51;34.83;98898.81;6313433;22;19940;-92
2023/07/09 14:34:33;;;;;;;;;;;;;;;25.25;35.93;98900.41;6290353;22;20025;-87
2023/07/09 14:40:52;;;;;;;;;;;;;;;25.13;36.95;98892.59;6197697;23;19920;-94
2023/07/09 14:43:18;;;;;;;;;;;;;;;25.06;37.23;98896.25;6176047;23;19919;-92
2023/07/09 14:45:44;;;;;;;;;;;;;;;25.00;37.21;98892.34;6174848;23;19921;-92
2023/07/09 14:48:25;;;;;;;;;;;;;;;;;;;;;
2023/07/09 14:51:19;;;;;;;;;;;;;;;24.98;37.94;98896.78;6188194;23;19924;-94
2023/07/09 14:57:00;;;;;;;;;;;;;;;24.79;37.72;98889.84;6352168;22;19923;-92
2023/07/09 14:59:29;;;;;;;;;;;;;;;24.76;38.00;98899.06;6269926;22;19918;-93
2023/07/09 15:01:55;;;;;;;;;;;;;;;24.73;37.94;98894.31;6300249;22;19977;-93
2023/07/09 15:07:12;;;;;;;;;;;;;;;24.81;36.77;98893.00;6303566;22;19927;-92
2023/07/09 15:12:32;;;;;;;;;;;;;;;25.06;36.85;98899.03;6300606;22;19927;-92
2023/07/09 15:15:28;;;;;;;;;;;;;;;25.48;36.00;98887.66;6280879;22;19930;-90
2023/07/09 15:18:11;;;;;;;;;;;;;;;25.34;36.37;98890.69;6288151;22;19918;-87
2023/07/09 15:21:34;;;;;;;;;;;;;;;25.21;36.52;98893.28;6254302;23;19938;-90
2023/07/09 15:24:02;;;;;;;;;;;;;;;25.14;36.77;98887.81;6237582;23;19958;-93
2023/07/09 15:26:40;;;;;;;;;;;;;;;25.14;36.81;98888.59;6185930;23;19923;-91
2023/07/09 15:29:27;;;;;;;;;;;;;;;25.08;37.03;98884.66;6215939;22;19923;-89
2023/07/09 15:32:22;;;;;;;;;;;;;;;25.03;37.37;98883.13;6205778;22;19919;-88
2023/07/09 15:34:49;;;;;;;;;;;;;;;25.13;36.70;98877.81;6233981;22;19981;-93
2023/07/09 15:37:17;;;;;;;;;;;;;;;24.93;36.75;98881.25;6233739;22;20264;-92
2023/07/09 15:39:51;;;;;;;;;;;;;;;24.84;36.65;98889.38;6246640;22;19923;-91
2023/07/09 15:42:24;;;;;;;;;;;;;;;24.71;36.65;98877.97;6289567;22;19918;-88
2023/07/09 15:45:13;;;;;;;;;;;;;;;24.65;37.00;98881.66;6235745;22;19946;-94
2023/07/09 15:47:42;;;;;;;;;;;;;;;24.52;37.47;98876.59;6265690;22;19922;-89
2023/07/09 15:53:56;;;;;;;;;;;;;;;24.47;38.34;98884.63;6285854;22;19925;-91
2023/07/09 15:56:28;;;;;;;;;;;;;;;24.45;38.35;98882.28;6231870;22;19947;-91
2023/07/09 15:59:04;;;;;;;;;;;;;;;24.44;38.90;98880.69;6282981;22;19940;-91
2023/07/09 16:01:30;;;;;;;;;;;;;;;24.36;39.21;98884.75;6231033;22;19925;-88
2023/07/09 16:04:08;;;;;;;;;;;;;;;24.33;38.69;98883.56;6257720;22;19918;-91
2023/07/09 16:06:54;;;;;;;;;;;;;;;24.32;38.70;98881.19;6289209;22;19918;-92
2023/07/09 16:09:29;;;;;;;;;;;;;;;24.32;38.28;98887.56;6282542;22;19988;-89
2023/07/09 16:12:16;;;;;;;;;;;;;;;24.30;37.60;98884.38;6283814;22;19926;-90
2023/07/09 16:14:42;;;;;;;;;;;;;;;24.27;37.90;98884.44;6282862;22;20401;-87
2023/07/09 16:17:19;;;;;;;;;;;;;;;24.33;38.66;98885.56;6283916;22;19919;-86
2023/07/09 16:19:45;;;;;;;;;;;;;;;24.31;38.48;98890.78;6308689;22;20001;-87
2023/07/09 16:22:14;;;;;;;;;;;;;;;24.21;37.92;98884.13;6281100;22;19926;-86
2023/07/09 16:24:49;;;;;;;;;;;;;;;24.20;37.70;98884.50;6310481;22;19923;-89
2023/07/09 16:27:31;;;;;;;;;;;;;;;24.12;38.10;98881.81;6260499;22;19942;-92
2023/07/09 16:30:22;;;;;;;;;;;;;;;24.07;37.74;98889.84;6234281;22;19918;-92
2023/07/09 16:32:48;;;;;;;;;;;;;;;24.03;38.40;98887.06;6305553;22;19918;-85
2023/07/09 16:35:19;;;;;;;;;;;;;;;24.05;38.24;98884.69;6308022;22;20290;-87
2023/07/09 16:37:49;;;;;;;;;;;;;;;24.07;38.49;98889.84;6310195;22;19926;-87
2023/07/09 16:43:13;;;;;;;;;;;;;;;24.09;39.02;98891.00;6272933;22;19927;-84
2023/07/09 16:45:40;;;;;;;;;;;;;;;24.04;40.00;98883.09;6271772;22;19918;-85
2023/07/09 16:48:14;;;;;;;;;;;;;;;23.97;40.59;98877.56;6275460;22;19926;-88
2023/07/09 16:50:40;;;;;;;;;;;;;;;23.98;40.54;98883.97;6253414;22;19919;-88
2023/07/09 16:53:11;;;;;;;;;;;;;;;23.96;41.01;98878.78;6278232;22;20011;-89
2023/07/09 16:55:37;;;;;;;;;;;;;;;23.96;41.09;98884.38;6312065;22;19922;-84
2023/07/09 16:58:02;;;;;;;;;;;;;;;23.88;41.38;98878.06;6274118;22;19918;-85
2023/07/09 17:00:28;;;;;;;;;;;;;;;23.85;41.20;98878.88;6275652;22;20364;-85
2023/07/09 17:02:55;;;;;;;;;;;;;;;23.85;41.02;98878.09;6277810;22;19919;-87
2023/07/09 17:05:27;;;;;;;;;;;;;;;23.80;40.85;98878.53;6279429;22;19923;-92
2023/07/09 17:07:53;;;;;;;;;;;;;;;23.75;40.94;98887.38;6281699;22;19925;-89
2023/07/09 17:10:20;;;;;;;;;;;;;;;23.71;40.78;98878.22;6258359;22;19934;-87
2023/07/09 17:12:56;;;;;;;;;;;;;;;23.73;40.69;98892.56;6305771;22;20333;-86
2023/07/09 17:15:49;;;;;;;;;;;;;;;23.68;40.91;98888.22;6280102;22;19919;-85
2023/07/09 17:18:20;;;;;;;;;;;;;;;23.67;40.71;98873.44;6280103;22;19968;-85
2023/07/09 17:20:47;;;;;;;;;;;;;;;23.67;40.68;98881.81;6281777;22;20443;-85
2023/07/09 17:23:13;;;;;;;;;;;;;;;23.68;40.60;98891.00;6283035;22;19942;-84
2023/07/09 17:25:39;;;;;;;;;;;;;;;23.70;41.16;98888.59;6311261;22;19919;-85
2023/07/09 17:28:15;;;;;;;;;;;;;;;23.67;40.86;98890.19;6259399;22;19923;-84
2023/07/09 17:30:43;;;;;;;;;;;;;;;23.66;41.17;98891.38;6304991;22;19926;-85
2023/07/09 17:33:10;;;;;;;;;;;;;;;23.66;40.76;98890.59;6308227;22;19918;-86
2023/07/09 17:35:39;;;;;;;;;;;;;;;23.65;40.78;98892.59;6279587;22;19969;-85
2023/07/09 17:38:06;;;;;;;;;;;;;;;23.64;41.41;98891.00;6308369;22;20005;-84
2023/07/09 17:40:33;;;;;;;;;;;;;;;23.61;41.75;98894.63;6279923;22;20009;-87
2023/07/09 17:43:00;;;;;;;;;;;;;;;23.54;42.25;98891.91;6306136;22;19919;-86
2023/07/09 17:45:27;;;;;;;;;;;;;;;23.47;42.63;98896.72;6276714;22;19925;-87
2023/07/09 17:47:54;;;;;;;;;;;;;;;23.43;43.15;98896.75;6280777;22;19919;-83
2023/07/09 17:50:30;;;;;;;;;;;;;;;23.41;43.69;98896.34;6303880;22;20338;-85
2023/07/09 17:52:56;;;;;;;;;;;;;;;23.35;43.68;98886.84;6271775;22;19926;-84
2023/07/09 17:55:23;;;;;;;;;;;;;;;23.26;43.72;98892.88;6269693;22;19951;-85
2023/07/09 17:57:55;;;;;;;;;;;;;;;23.19;44.14;98885.38;6246913;22;20257;-85
2023/07/09 18:00:21;;;;;;;;;;;;;;;23.13;43.94;98906.50;6220558;22;19919;-85
2023/07/09 18:02:51;;;;;;;;;;;;;;;23.12;43.67;98901.34;6248363;22;20517;-85
2023/07/09 18:05:41;;;;;;;;;;;;;;;23.10;43.55;98907.31;6223961;22;20017;-88
2023/07/09 18:08:07;;;;;;;;;;;;;;;23.09;43.57;98902.16;6184539;23;19920;-89
2023/07/09 18:13:30;;;;;;;;;;;;;;;22.93;44.22;98903.44;6182561;23;19920;-89
2023/07/09 18:16:00;;;;;;;;;;;;;;;22.87;44.29;98913.38;6185665;23;19947;-91
2023/07/09 18:18:29;;;;;;;;;;;;;;;22.87;44.87;98912.59;6164411;23;19983;-88
2023/07/09 18:20:55;;;;;;;;;;;;;;;22.91;44.56;98918.94;6186555;23;19947;-88
2023/07/09 18:23:24;;;;;;;;;;;;;;;22.91;44.78;98918.94;6157972;23;19943;-89
2023/07/09 18:26:00;;;;;;;;;;;;;;;22.86;44.68;98917.38;6184019;23;20267;-88
2023/07/09 18:28:34;;;;;;;;;;;;;;;22.84;44.91;98900.25;6185344;23;19940;-88
2023/07/09 18:31:25;;;;;;;;;;;;;;;22.84;45.39;98908.63;6184092;23;19976;-89
2023/07/09 18:34:20;;;;;;;;;;;;;;;22.83;44.89;98917.41;6181963;23;20374;-89
2023/07/09 18:37:23;;;;;;;;;;;;;;;22.86;45.48;98902.66;6181253;23;20027;-87
2023/07/09 18:39:50;;;;;;;;;;;;;;;22.87;45.31;98912.59;6181751;23;20393;-88
2023/07/09 18:42:17;;;;;;;;;;;;;;;22.78;45.24;98910.25;6181844;23;19959;-87
2023/07/09 18:44:46;;;;;;;;;;;;;;;22.78;45.53;98912.22;6210804;22;20026;-87
2023/07/09 18:47:44;;;;;;;;;;;;;;;22.77;45.55;98914.22;6288799;22;19946;-88
2023/07/09 18:50:30;;;;;;;;;;;;;;;22.75;45.50;98911.88;6278227;22;19919;-86
2023/07/09 18:52:57;;;;;;;;;;;;;;;22.78;45.75;98910.25;6276604;22;19924;-87
2023/07/09 18:55:24;;;;;;;;;;;;;;;22.68;45.80;98899.94;6225752;22;19934;-87
2023/07/09 18:57:54;;;;;;;;;;;;;;;22.66;46.29;98894.78;6232527;22;19919;-90
2023/07/09 19:00:39;;;;;;;;;;;;;;;22.64;46.47;98899.94;6277812;22;19919;-89
2023/07/09 19:03:05;;;;;;;;;;;;;;;22.61;46.45;98884.03;6276140;22;19963;-89
2023/07/09 19:05:33;;;;;;;;;;;;;;;22.56;46.55;98887.25;6255041;22;19926;-88
2023/07/09 19:08:03;;;;;;;;;;;;;;;22.51;47.08;98891.25;6250425;22;20535;-89
2023/07/09 19:10:32;;;;;;;;;;;;;;;22.47;46.98;98896.03;6251295;22;19919;-88
2023/07/09 19:13:11;;;;;;;;;;;;;;;22.41;47.34;98892.06;6274274;22;19920;-89
2023/07/09 19:15:38;;;;;;;;;;;;;;;22.35;47.61;98893.72;6231155;22;19923;-88
2023/07/09 19:18:06;;;;;;;;;;;;;;;22.33;47.19;98895.31;6278971;22;19923;-88
2023/07/09 19:20:35;;;;;;;;;;;;;;;22.31;47.65;98898.47;6276055;22;19919;-88
2023/07/09 19:23:22;;;;;;;;;;;;;;;22.25;47.42;98895.31;6280786;22;19942;-89
2023/07/09 19:25:52;;;;;;;;;;;;;;;22.24;48.03;98890.94;6279466;22;19919;-87
2023/07/09 19:28:41;;;;;;;;;;;;;;;22.16;47.91;98886.59;6256095;22;19923;-87
2023/07/09 19:31:41;;;;;;;;;;;;;;;22.15;48.33;98895.31;6251697;22;19919;-88
2023/07/09 19:34:19;;;;;;;;;;;;;;;22.13;48.34;98894.94;6252352;22;19923;-90
2023/07/09 19:36:57;;;;;;;;;;;;;;;22.07;48.77;98890.97;6276565;22;19919;-88
2023/07/09 19:39:32;;;;;;;;;;;;;;;21.94;49.15;98888.59;6224587;22;19927;-85
2023/07/09 19:42:01;;;;;;;;;;;;;;;21.91;49.41;98883.81;6250234;22;19977;-86
2023/07/09 19:44:27;;;;;;;;;;;;;;;21.85;50.02;98879.06;6275546;22;19927;-87
2023/07/09 19:53:19;;;;;;;;;;;;;;;21.68;50.58;98884.22;6281487;22;20363;-87
2023/07/09 19:55:45;;;;;;;;;;;;;;;21.63;50.81;98883.84;6280578;22;19942;-87
2023/07/09 19:58:11;;;;;;;;;;;;;;;21.55;51.24;98875.50;6308248;22;19919;-87
2023/07/09 20:00:38;;;;;;;;;;;;;;;21.49;51.43;98885.44;6305397;22;19957;-87
2023/07/09 20:03:22;;;;;;;;;;;;;;;21.45;51.34;98867.16;6281718;22;20001;-87
2023/07/09 20:05:48;;;;;;;;;;;;;;;21.43;51.72;98866.78;6253946;22;19919;-89
2023/07/09 20:08:23;;;;;;;;;;;;;;;21.25;51.89;98861.94;6277303;22;19919;-87
2023/07/09 20:10:50;;;;;;;;;;;;;;;21.29;52.39;98871.09;6303418;22;20299;-86
2023/07/09 20:13:25;;;;;;;;;;;;;;;21.28;52.05;98872.28;6277949;22;19993;-87
2023/07/09 20:16:00;;;;;;;;;;;;;;;21.25;52.04;98870.28;6304769;22;19972;-88
2023/07/09 20:18:26;;;;;;;;;;;;;;;21.22;52.30;98873.84;6298189;22;19934;-88
2023/07/09 20:21:03;;;;;;;;;;;;;;;21.19;52.25;98871.06;6278914;22;19953;-84
2023/07/09 20:23:54;;;;;;;;;;;;;;;21.15;52.46;98876.63;6303872;22;19919;-84
2023/07/09 20:26:20;;;;;;;;;;;;;;;21.09;52.96;98872.66;6254597;22;19919;-86
2023/07/09 20:28:52;;;;;;;;;;;;;;;21.04;52.90;98870.28;6306637;22;19980;-86
2023/07/09 20:31:23;;;;;;;;;;;;;;;20.98;53.34;98863.50;6305995;22;19926;-86
2023/07/09 20:33:55;;;;;;;;;;;;;;;20.97;53.35;98864.69;6304612;22;19964;-87
2023/07/09 20:36:21;;;;;;;;;;;;;;;20.86;53.57;98856.31;6303503;22;19918;-84
2023/07/09 20:38:48;;;;;;;;;;;;;;;20.85;54.17;98851.97;6279842;22;20441;-85
2023/07/09 20:41:18;;;;;;;;;;;;;;;20.80;54.00;98861.47;6254021;22;19929;-86
2023/07/09 20:43:44;;;;;;;;;;;;;;;20.80;54.18;98864.25;6309726;22;20340;-86
2023/07/09 20:46:10;;;;;;;;;;;;;;;20.74;54.42;98871.38;6304683;22;19925;-85
2023/07/09 20:48:37;;;;;;;;;;;;;;;20.68;54.49;98861.84;6255539;22;20371;-86
2023/07/09 20:51:03;;;;;;;;;;;;;;;20.67;54.38;98865.03;6314131;22;19971;-88
2023/07/09 20:53:28;;;;;;;;;;;;;;;20.62;54.78;98861.41;6308276;22;19919;-86
2023/07/09 21:01:46;;;;;;;;;;;;;;;20.52;55.08;98853.84;6330977;22;19930;-81
2023/07/09 21:04:12;;;;;;;;;;;;;;;20.49;55.25;98853.78;6304187;22;19918;-81
2023/07/09 21:06:39;;;;;;;;;;;;;;;20.48;55.11;98858.56;6306859;22;20237;-82
2023/07/09 23:04:49;;;;;;;;;;;;;;;18.83;59.63;98842.69;6303363;22;20281;-80
2023/07/09 23:07:15;;;;;;;;;;;;;;;18.80;59.83;98837.09;6311352;22;20339;-86
2023/07/09 23:09:41;;;;;;;;;;;;;;;18.77;60.00;98833.94;6311119;22;19995;-89
2023/07/09 23:12:11;;;;;;;;;;;;;;;18.73;60.28;98840.59;6339045;22;20386;-85
2023/07/09 23:14:39;;;;;;;;;;;;;;;18.68;60.57;98852.78;6311286;22;20005;-85
2023/07/09 23:17:11;;;;;;;;;;;;;;;18.61;61.10;98843.59;6338640;22;19945;-83
2023/07/09 23:19:37;;;;;;;;;;;;;;;18.59;61.45;98843.97;6311000;22;20405;-82
2023/07/09 23:22:03;;;;;;;;;;;;;;;18.52;61.74;98847.47;6310965;22;19923;-81
2023/07/09 23:24:29;;;;;;;;;;;;;;;18.45;62.19;98844.63;6339631;22;19919;-81
2023/07/09 23:26:56;;;;;;;;;;;;;;;18.47;62.45;98847.78;6313468;22;19965;-84
2023/07/09 23:29:23;;;;;;;;;;;;;;;18.48;62.38;98843.88;6311819;22;19924;-83
2023/07/09 23:31:49;;;;;;;;;;;;;;;18.45;62.67;98852.13;6311022;22;20228;-83
2023/07/09 23:34:16;;;;;;;;;;;;;;;18.39;63.11;98840.59;6338715;22;19918;-83
2023/07/09 23:36:42;;;;;;;;;;;;;;;18.33;63.30;98847.63;6339481;22;19919;-83